Terminal Aerodrome Forecast
Issued by NWS

Home | Current Version | Previous Version | Graphics & Text | Print | Product List | Glossary On
Versions: 1 2 3 4 5 6 7 8 9 10 11 12 13 14 15 16 17 18 19 20
000
FTUS43 KGRB 190520
TAFAUW
TAF
KAUW 190520Z 1906/2006 11004KT P6SM SCT040 BKN070
     FM191200 10004KT P6SM BKN035
     FM191700 14008KT P6SM BKN050
     FM192300 09008KT P6SM SCT050
     FM200300 12009KT 5SM BR SCT030=

USA.gov is the U.S. government's official web portal to all federal, state and local government web resources and services.